Latest Weather Observations for Green Cape

IDN60801

Issued at 5:02 pm EDT Thursday 2 April 2015 (issued every 30 minutes, with the page automatically refreshed every 10 minutes)

About weather observations | Map of weather stations | Latest weather observations for NSW | Other Formats
Station Details ID: 069137 Name: GREEN CAPE AWS Lat: -37.26 Lon: 150.05 Height: 19.4 m
Data from the previous 72 hours. | See also: Recent months at Green Cape
Date/Time
EDT
Temp
°C
App
Temp
°C
Dew
Point
Rel
Hum
%
Delta-T
°C
Wind Press
QNH
hPa
Press
MSL
hPa
Rain
since 9 am
mm
Dir
 
Spd
km/h
Gust
km/h
Spd
kts
Gust
kts
02/05:00pm 17.3 8.0 7.6 53 4.9 SW 46 69 25 37 1018.2 1018.2 0.0
02/04:55pm 17.3 8.6 7.9 54 4.8 SW 43 61 23 33 1018.3 1018.3 0.0
02/04:30pm 17.3 7.8 8.2 55 4.6 SW 48 59 26 32 1018.0 1018.0 0.0
02/04:00pm 17.1 8.4 8.3 56 4.5 SW 44 56 24 30 1017.5 1017.5 0.0
02/03:30pm 16.9 7.8 8.3 57 4.4 SW 46 61 25 33 1017.6 1017.6 0.0
02/03:00pm 17.0 8.0 8.9 59 4.2 SW 46 61 25 33 1017.6 1017.6 0.0
02/02:30pm 17.1 8.6 9.3 60 4.1 SW 44 54 24 29 1017.3 1017.3 0.0
02/02:00pm 17.4 7.6 10.1 62 3.9 SW 52 63 28 34 1017.2 1017.2 0.0
02/01:30pm 17.8 8.5 10.4 62 4.0 SW 50 61 27 33 1017.4 1017.4 0.0
02/01:00pm 17.8 9.7 10.9 64 3.7 SW 44 54 24 29 1017.4 1017.4 0.0
02/12:30pm 17.8 9.9 11.6 67 3.4 SW 44 56 24 30 1017.4 1017.4 0.0
02/12:00pm 17.8 11.9 12.5 71 2.9 SW 35 44 19 24 1017.2 1017.2 0.0
02/11:30am 17.4 10.7 13.3 77 2.3 SW 41 48 22 26 1017.0 1017.0 0.0
02/11:00am 17.6 11.1 13.9 79 2.1 SW 41 48 22 26 1016.8 1016.8 0.0
02/10:30am 18.4 13.3 14.7 79 2.1 SSW 35 43 19 23 1016.4 1016.4 0.0
02/10:00am 18.9 13.7 15.6 81 1.9 SW 37 43 20 23 1016.4 1016.4 0.0
02/09:30am 19.7 15.6 16.5 82 1.9 SSW 33 41 18 22 1015.9 1015.9 0.0
02/09:00am 19.6 17.6 16.4 82 1.9 SSW 22 26 12 14 1015.8 1015.8 0.0
02/08:30am 19.7 17.8 15.8 78 2.3 WSW 20 26 11 14 1015.4 1015.4 0.0
02/08:00am 19.6 16.8 16.3 81 2.0 SW 26 30 14 16 1014.7 1014.7 0.0
02/07:30am 18.8 17.2 16.6 87 1.3 W 20 28 11 15 1014.1 1014.1 0.0
02/07:00am 18.6 16.7 17.6 94 0.6 N 24 28 13 15 1012.7 1012.7 0.0
02/06:30am 18.4 17.2 17.4 94 0.6 N 20 22 11 12 1012.5 1012.5 0.0
02/06:00am 18.6 16.7 17.6 94 0.6 N 24 28 13 15 1012.3 1012.3 0.0
02/05:30am 18.6 16.4 17.8 95 0.5 N 26 30 14 16 1012.3 1012.3 0.0
02/05:00am 18.8 16.3 18.1 96 0.4 N 28 30 15 16 1012.5 1012.5 0.0
02/04:30am 18.8 17.8 18.0 95 0.5 N 20 24 11 13 1012.9 1012.9 0.0
02/04:00am 18.7 18.2 17.9 95 0.5 N 17 20 9 11 1013.0 1013.0 0.0
02/03:30am 18.9 20.0 18.1 95 0.5 N 9 11 5 6 1013.6 1013.6 0.0
02/03:00am 19.1 18.8 18.3 95 0.5 N 17 20 9 11 1013.8 1013.8 0.0
02/02:30am 19.3 18.6 18.3 94 0.6 N 19 24 10 13 1014.2 1014.2 0.0
02/02:00am 19.5 18.0 18.5 94 0.6 N 24 26 13 14 1014.4 1014.4 0.0
02/01:30am 19.7 18.3 18.7 94 0.6 N 24 28 13 15 1014.7 1014.7 0.0
02/01:00am 19.8 17.3 18.8 94 0.6 N 30 33 16 18 1014.8 1014.8 0.0
02/12:30am 19.8 18.0 18.8 94 0.6 N 26 30 14 16 1015.1 1015.1 0.0
02/12:00am 20.0 17.5 18.8 93 0.8 N 30 32 16 17 1015.5 1015.5 0.0
 
Date/Time
EDT
Temp
°C
App
Temp
°C
Dew
Point
Rel
Hum
%
Delta-T
°C
Wind Press
QNH
hPa
Press
MSL
hPa
Rain
since 9 am
mm
Dir
 
Spd
km/h
Gust
km/h
Spd
kts
Gust
kts
01/11:30pm 20.0 17.4 18.7 92 0.8 N 30 32 16 17 1015.6 1015.6 0.0
01/11:00pm 20.3 18.2 19.0 92 0.8 N 28 32 15 17 1016.0 1016.0 0.0
01/10:30pm 20.4 17.4 19.1 92 0.8 N 33 39 18 21 1016.1 1016.1 0.0
01/10:00pm 20.8 15.8 19.3 91 0.9 N 44 54 24 29 1015.8 1015.8 0.0
01/09:30pm 20.9 15.1 19.2 90 1.1 N 48 56 26 30 1015.7 1015.7 0.0
01/09:00pm 20.9 15.1 19.2 90 1.1 N 48 57 26 31 1015.6 1015.6 0.0
01/08:30pm 20.9 15.9 19.2 90 1.1 N 44 52 24 28 1015.6 1015.6 0.0
01/08:00pm 21.0 16.0 19.3 90 1.1 N 44 50 24 27 1015.4 1015.4 0.0
01/07:30pm 21.1 16.1 19.2 89 1.2 N 44 52 24 28 1015.4 1015.4 0.0
01/07:00pm 21.2 15.0 19.1 88 1.3 N 50 59 27 32 1015.2 1015.2 0.0
01/06:30pm 21.3 15.8 19.0 87 1.5 N 46 54 25 29 1015.2 1015.2 0.0
01/06:00pm 21.4 16.0 19.1 87 1.5 NNE 46 56 25 30 1015.3 1015.3 0.0
01/05:30pm 21.5 16.6 19.1 86 1.5 NNE 43 50 23 27 1015.5 1015.5 0.0
01/05:00pm 21.6 16.1 19.0 85 1.6 NNE 46 54 25 29 1015.5 1015.5 0.0
01/04:30pm 21.7 16.5 18.9 84 1.8 NNE 44 52 24 28 1016.0 1016.0 0.0
01/04:00pm 22.1 16.6 18.9 82 2.0 NNE 46 57 25 31 1016.4 1016.4 0.0
01/03:30pm 22.3 15.7 18.3 78 2.5 NNE 50 59 27 32 1016.4 1016.4 0.0
01/03:00pm 22.7 16.5 18.3 76 2.8 NNE 48 57 26 31 1017.2 1017.2 0.0
01/02:30pm 22.7 17.2 18.0 75 2.9 NNE 44 57 24 31 1017.8 1017.8 0.0
01/02:00pm 22.8 16.4 17.9 74 3.0 NNE 48 57 26 31 1018.3 1018.3 0.0
01/01:30pm 22.8 16.7 17.7 73 3.2 NNE 46 56 25 30 1019.0 1019.0 0.0
01/01:00pm 22.5 17.2 17.2 72 3.3 NNE 41 48 22 26 1019.6 1019.6 0.0
01/12:30pm 22.5 17.3 17.4 73 3.2 NNE 41 48 22 26 1020.4 1020.4 0.0
01/12:00pm 22.2 16.5 17.3 74 3.0 NNE 43 52 23 28 1020.9 1020.9 0.0
01/11:30am 21.6 15.1 17.6 78 2.5 N 48 54 26 29 1021.3 1021.3 0.0
01/11:00am 20.7 17.0 16.9 79 2.3 N 32 43 17 23 1022.0 1022.0 0.0
01/10:30am 21.4 18.0 16.8 75 2.8 N 30 35 16 19 1022.3 1022.3 0.0
01/10:00am 20.4 16.4 16.2 77 2.5 N 32 37 17 20 1022.4 1022.4 0.0
01/09:30am 20.4 15.6 16.6 79 2.3 N 37 43 20 23 1022.2 1022.2 0.0
01/09:00am 19.7 15.3 16.7 83 1.8 N 35 41 19 22 1022.1 1022.1 0.0
01/08:30am 19.5 16.1 16.7 84 1.7 N 30 37 16 20 1022.2 1022.2 0.0
01/08:00am 18.7 16.7 16.5 87 1.3 N 22 28 12 15 1022.4 1022.4 0.0
01/07:30am 18.4 15.7 16.7 90 1.0 N 26 32 14 17 1022.3 1022.3 0.0
01/07:00am 18.6 15.7 17.1 91 0.9 N 28 33 15 18 1021.9 1021.9 0.0
01/06:30am 18.6 15.0 17.1 91 0.9 N 32 37 17 20 1021.7 1021.7 0.0
01/06:00am 18.6 15.6 16.9 90 1.0 N 28 33 15 18 1021.7 1021.7 0.0
01/05:30am 18.6 15.3 16.9 90 1.0 N 30 33 16 18 1021.8 1021.8 0.0
01/05:00am 19.0 15.8 17.3 90 1.0 N 30 33 16 18 1021.9 1021.9 0.0
01/04:30am 19.2 15.7 17.5 90 1.0 N 32 37 17 20 1021.9 1021.9 0.0
01/04:00am 19.0 16.9 17.1 89 1.1 N 24 30 13 16 1022.4 1022.4 0.0
01/03:30am 19.4 16.7 17.5 89 1.2 N 28 32 15 17 1022.6 1022.6 0.0
01/03:00am 19.8 16.3 17.8 88 1.2 N 33 39 18 21 1023.0 1023.0 0.0
01/02:30am 20.1 15.5 18.1 88 1.2 N 39 46 21 25 1023.4 1023.4 0.0
01/02:00am 20.1 15.9 18.1 88 1.2 N 37 44 20 24 1023.8 1023.8 0.0
01/01:30am 20.1 15.6 18.2 89 1.2 N 39 46 21 25 1023.8 1023.8 0.0
01/01:00am 20.1 15.6 18.2 89 1.2 N 39 44 21 24 1023.9 1023.9 0.0
01/12:30am 20.0 15.8 18.1 89 1.2 N 37 44 20 24 1024.1 1024.1 0.0
01/12:00am 20.1 15.9 18.1 88 1.2 N 37 43 20 23 1024.3 1024.3 0.0
 
Date/Time
EDT
Temp
°C
App
Temp
°C
Dew
Point
Rel
Hum
%
Delta-T
°C
Wind Press
QNH
hPa
Press
MSL
hPa
Rain
since 9 am
mm
Dir
 
Spd
km/h
Gust
km/h
Spd
kts
Gust
kts
31/11:30pm 20.2 16.5 18.3 89 1.2 N 35 41 19 22 1024.5 1024.5 0.0
31/11:00pm 20.7 17.5 18.6 88 1.3 N 33 43 18 23 1024.5 1024.5 0.0
31/10:30pm 20.9 16.1 18.3 85 1.6 N 41 50 22 27 1024.3 1024.3 0.0
31/10:00pm 20.9 16.0 18.1 84 1.7 NNE 41 48 22 26 1024.2 1024.2 0.0
31/09:30pm 21.1 17.0 18.3 84 1.7 NNE 37 41 20 22 1024.5 1024.5 0.0
31/09:00pm 21.1 18.8 18.5 85 1.6 NNE 28 33 15 18 1024.9 1024.9 0.0
31/08:30pm 21.1 18.8 18.5 85 1.6 NNE 28 32 15 17 1025.0 1025.0 0.0
31/08:00pm 21.2 19.0 18.6 85 1.6 NNE 28 32 15 17 1025.0 1025.0 0.0
31/07:30pm 21.1 18.7 18.3 84 1.7 NNE 28 30 15 16 1024.6 1024.6 0.0
31/07:00pm 21.3 19.8 18.5 84 1.7 NNE 24 28 13 15 1024.4 1024.4 0.0
31/06:30pm 21.5 19.4 18.1 81 2.1 NNE 26 32 14 17 1023.8 1023.8 0.0
31/06:00pm 22.2 20.1 18.0 77 2.6 NNE 26 30 14 16 1023.9 1023.9 0.0
31/05:30pm 22.7 21.3 18.0 75 2.9 NNE 22 24 12 13 1024.1 1024.1 0.0
31/05:00pm 23.3 22.5 18.4 74 3.1 NNE 20 26 11 14 1024.0 1024.0 0.0
31/04:30pm 23.3 21.4 18.6 75 3.0 NE 26 30 14 16 1023.9 1023.9 0.0
31/04:00pm 23.1 21.0 18.0 73 3.2 NNE 26 28 14 15 1024.4 1024.4 0.0
31/03:30pm 25.0 25.1 18.4 66 4.2 NNE 15 20 8 11 1024.8 1024.8 0.0
31/03:00pm 25.1 26.3 18.3 66 4.3 NNE 9 11 5 6 1025.2 1025.2 0.0
31/02:30pm 25.4 27.2 18.3 65 4.5 NNE 6 7 3 4 1025.7 1025.7 0.0
31/02:00pm 25.1 27.0 18.5 67 4.2 NE 6 7 3 4 1025.9 1025.9 0.0
31/01:30pm 23.8 25.6 17.5 68 3.9 NE 4 6 2 3 1026.4 1026.4 0.0
31/01:00pm 23.8 26.2 18.0 70 3.6 E 2 7 1 4 1026.9 1026.9 0.0
31/12:30pm 21.7 24.1 16.9 74 2.9 CALM 0 0 0 0 1027.3 1027.3 0.0
31/12:00pm 21.1 23.0 16.7 76 2.7 SW 2 6 1 3 1027.7 1027.7 0.0
31/11:30am 20.2 21.2 16.4 79 2.3 WSW 6 6 3 3 1027.9 1027.9 0.0
31/11:00am 19.4 20.0 15.9 80 2.1 WSW 7 9 4 5 1028.1 1028.1 0.0
31/10:30am 18.7 18.5 15.8 83 1.7 WSW 11 15 6 8 1028.1 1028.1 0.0
31/10:00am 17.8 16.7 15.2 85 1.5 W 15 17 8 9 1027.8 1027.8 0.0
31/09:30am 17.3 16.2 15.3 88 1.2 W 15 17 8 9 1027.7 1027.7 0.0
31/09:00am 16.6 15.8 15.0 90 0.9 WSW 13 17 7 9 1027.4 1027.4 0.0
31/08:30am 15.4 13.0 13.9 91 0.8 W 19 24 10 13 1027.2 1027.2 0.0
31/08:00am 15.4 12.9 14.1 92 0.7 W 20 20 11 11 1026.9 1026.9 0.0
31/07:30am 15.3 13.8 14.2 93 0.6 W 15 17 8 9 1026.7 1026.7 0.0
31/07:00am 15.1 12.8 14.1 94 0.6 W 19 20 10 11 1026.4 1026.4 0.0
31/06:30am 15.4 13.6 14.4 94 0.6 W 17 20 9 11 1026.1 1026.1 0.0
31/06:00am 15.6 13.9 14.6 94 0.6 W 17 19 9 10 1025.8 1025.8 0.0
31/05:30am 15.5 14.1 14.5 94 0.6 W 15 17 8 9 1025.7 1025.7 0.0
31/05:00am 15.8 14.1 14.7 93 0.6 W 17 20 9 11 1025.6 1025.6 0.0
31/04:30am 15.8 14.4 14.5 92 0.7 W 15 19 8 10 1025.6 1025.6 0.0
31/04:00am 16.0 14.7 14.7 92 0.7 W 15 17 8 9 1025.7 1025.7 0.0
31/03:30am 15.8 14.0 14.5 92 0.7 W 17 19 9 10 1026.0 1026.0 0.0
31/03:00am 16.2 14.9 14.9 92 0.7 W 15 17 8 9 1026.1 1026.1 0.0
31/02:30am 16.4 15.6 15.1 92 0.8 W 13 17 7 9 1026.2 1026.2 0.0
31/02:00am 16.6 15.0 15.1 91 0.9 W 17 20 9 11 1026.5 1026.5 0.0
31/01:30am 17.1 16.0 15.3 89 1.0 WSW 15 19 8 10 1026.4 1026.4 0.0
31/01:00am 17.8 15.8 15.6 87 1.3 SSW 20 24 11 13 1026.3 1026.3 0.0
31/12:30am 17.8 15.9 15.8 88 1.2 SSW 20 24 11 13 1026.3 1026.3 0.0
31/12:00am 17.8 16.9 15.8 88 1.2 WSW 15 19 8 10 1026.4 1026.4 0.0
 
Date/Time
EDT
Temp
°C
App
Temp
°C
Dew
Point
Rel
Hum
%
Delta-T
°C
Wind Press
QNH
hPa
Press
MSL
hPa
Rain
since 9 am
mm
Dir
 
Spd
km/h
Gust
km/h
Spd
kts
Gust
kts
30/11:30pm 18.4 17.2 16.0 86 1.4 SW 17 20 9 11 1026.4 1026.4 0.0
30/11:00pm 18.5 16.8 16.3 87 1.3 SW 20 24 11 13 1026.4 1026.4 0.0
30/10:30pm 18.6 17.7 16.8 89 1.1 SW 17 20 9 11 1026.3 1026.3 0.0
30/10:00pm 18.7 18.2 16.9 89 1.1 SW 15 17 8 9 1026.2 1026.2 0.0
30/09:30pm 18.8 19.1 16.9 89 1.1 WSW 11 13 6 7 1026.0 1026.0 0.0
30/09:00pm 19.2 19.6 17.3 89 1.2 SW 11 13 6 7 1026.1 1026.1 0.0
30/08:30pm 19.2 18.8 17.2 88 1.2 SSW 15 17 8 9 1025.8 1025.8 0.0
30/08:00pm 19.4 19.4 17.2 87 1.3 SW 13 17 7 9 1025.5 1025.5 0.0
30/07:30pm 19.7 21.2 16.7 83 1.8 W 4 6 2 3 1025.0 1025.0 0.0
30/07:00pm 20.7 22.6 15.7 73 3.0 CALM 0 2 0 1 1024.6 1024.6 0.0
30/06:30pm 21.4 23.2 15.5 69 3.5 CALM 0 0 0 0 1024.3 1024.3 0.0
30/06:00pm 22.3 23.4 15.6 66 4.0 SE 4 6 2 3 1024.0 1024.0 0.0
30/05:30pm 22.3 22.9 15.2 64 4.2 ENE 6 7 3 4 1023.6 1023.6 0.0

Other Formats:

Comma delimited format used in spreadsheet applications
http://www.bom.gov.au/fwo/IDN60801/IDN60801.94934.axf

JavaScript Object Notation format (JSON) in row-major order
http://www.bom.gov.au/fwo/IDN60801/IDN60801.94934.json